sensor_id;sensor_type;location;lat;lon;timestamp;temperature;humidity
51902;DHT22;37929;53.218;6.548;2023-01-04T00:00:34;8.20;99.90
51902;DHT22;37929;53.218;6.548;2023-01-04T00:03:00;8.20;99.90
51902;DHT22;37929;53.218;6.548;2023-01-04T00:05:26;8.20;99.90
51902;DHT22;37929;53.218;6.548;2023-01-04T00:07:51;8.30;99.90
51902;DHT22;37929;53.218;6.548;2023-01-04T00:10:17;8.30;99.90
51902;DHT22;37929;53.218;6.548;2023-01-04T00:12:43;8.20;99.90
51902;DHT22;37929;53.218;6.548;2023-01-04T00:15:09;8.20;99.90
51902;DHT22;37929;53.218;6.548;2023-01-04T00:17:35;8.20;99.90
51902;DHT22;37929;53.218;6.548;2023-01-04T00:20:01;8.20;99.90
51902;DHT22;37929;53.218;6.548;2023-01-04T00:22:26;8.20;99.90
51902;DHT22;37929;53.218;6.548;2023-01-04T00:24:52;8.20;99.90
51902;DHT22;37929;53.218;6.548;2023-01-04T00:30:27;8.10;99.90
51902;DHT22;37929;53.218;6.548;2023-01-04T00:32:53;8.10;99.90
51902;DHT22;37929;53.218;6.548;2023-01-04T00:35:19;8.00;99.90
51902;DHT22;37929;53.218;6.548;2023-01-04T00:37:47;8.00;99.90
51902;DHT22;37929;53.218;6.548;2023-01-04T00:40:13;8.00;99.90
51902;DHT22;37929;53.218;6.548;2023-01-04T00:42:39;7.90;99.90
51902;DHT22;37929;53.218;6.548;2023-01-04T00:45:05;7.90;99.90
51902;DHT22;37929;53.218;6.548;2023-01-04T00:47:31;7.80;99.90
51902;DHT22;37929;53.218;6.548;2023-01-04T00:49:57;7.80;99.90
51902;DHT22;37929;53.218;6.548;2023-01-04T00:52:23;7.80;99.90
51902;DHT22;37929;53.218;6.548;2023-01-04T00:54:49;7.80;99.90
51902;DHT22;37929;53.218;6.548;2023-01-04T00:57:14;7.80;99.90
51902;DHT22;37929;53.218;6.548;2023-01-04T00:59:40;7.80;99.90
51902;DHT22;37929;53.218;6.548;2023-01-04T01:02:06;7.90;99.90
51902;DHT22;37929;53.218;6.548;2023-01-04T01:04:32;7.80;99.90
51902;DHT22;37929;53.218;6.548;2023-01-04T01:06:57;8.20;99.90
51902;DHT22;37929;53.218;6.548;2023-01-04T01:09:24;7.90;99.90
51902;DHT22;37929;53.218;6.548;2023-01-04T01:11:53;7.80;99.90
51902;DHT22;37929;53.218;6.548;2023-01-04T01:14:21;7.80;99.90
51902;DHT22;37929;53.218;6.548;2023-01-04T01:16:50;7.80;99.90
51902;DHT22;37929;53.218;6.548;2023-01-04T01:19:16;7.80;99.90
51902;DHT22;37929;53.218;6.548;2023-01-04T01:21:42;7.80;99.90
51902;DHT22;37929;53.218;6.548;2023-01-04T01:24:15;7.80;99.90
51902;DHT22;37929;53.218;6.548;2023-01-04T01:26:41;7.80;99.90
51902;DHT22;37929;53.218;6.548;2023-01-04T01:29:07;7.80;99.90
51902;DHT22;37929;53.218;6.548;2023-01-04T01:31:33;7.80;99.90
51902;DHT22;37929;53.218;6.548;2023-01-04T01:34:01;7.80;99.90
51902;DHT22;37929;53.218;6.548;2023-01-04T01:36:29;7.80;99.90
51902;DHT22;37929;53.218;6.548;2023-01-04T01:38:55;7.80;99.90
51902;DHT22;37929;53.218;6.548;2023-01-04T01:41:26;7.90;99.90
51902;DHT22;37929;53.218;6.548;2023-01-04T01:43:57;7.80;99.90
51902;DHT22;37929;53.218;6.548;2023-01-04T01:46:46;7.80;99.90
51902;DHT22;37929;53.218;6.548;2023-01-04T01:49:33;7.80;99.90
51902;DHT22;37929;53.218;6.548;2023-01-04T01:52:04;7.80;99.90
51902;DHT22;37929;53.218;6.548;2023-01-04T01:54:34;7.70;99.90
51902;DHT22;37929;53.218;6.548;2023-01-04T01:57:03;7.60;99.90
51902;DHT22;37929;53.218;6.548;2023-01-04T01:59:33;7.60;99.90
51902;DHT22;37929;53.218;6.548;2023-01-04T02:02:00;7.60;99.90
51902;DHT22;37929;53.218;6.548;2023-01-04T02:04:26;7.60;99.90
51902;DHT22;37929;53.218;6.548;2023-01-04T02:06:54;7.60;99.90
51902;DHT22;37929;53.218;6.548;2023-01-04T02:09:22;7.60;99.90
51902;DHT22;37929;53.218;6.548;2023-01-04T02:11:48;7.60;99.90
51902;DHT22;37929;53.218;6.548;2023-01-04T02:14:16;7.80;99.90
51902;DHT22;37929;53.218;6.548;2023-01-04T02:33:36;8.20;99.90
51902;DHT22;37929;53.218;6.548;2023-01-04T02:36:12;7.80;99.90
51902;DHT22;37929;53.218;6.548;2023-01-04T02:38:57;7.80;99.90
51902;DHT22;37929;53.218;6.548;2023-01-04T02:41:49;7.90;99.90
51902;DHT22;37929;53.218;6.548;2023-01-04T02:44:21;7.90;99.90
51902;DHT22;37929;53.218;6.548;2023-01-04T02:47:36;8.90;99.90
51902;DHT22;37929;53.218;6.548;2023-01-04T02:53:14;8.10;99.90
51902;DHT22;37929;53.218;6.548;2023-01-04T03:07:29;8.10;99.90
51902;DHT22;37929;53.218;6.548;2023-01-04T03:10:06;8.10;99.90
51902;DHT22;37929;53.218;6.548;2023-01-04T03:12:40;8.20;99.90
51902;DHT22;37929;53.218;6.548;2023-01-04T03:15:14;7.50;99.90
51902;DHT22;37929;53.218;6.548;2023-01-04T03:17:49;8.20;99.90
51902;DHT22;37929;53.218;6.548;2023-01-04T03:20:18;8.20;99.90
51902;DHT22;37929;53.218;6.548;2023-01-04T03:22:51;8.20;99.90
51902;DHT22;37929;53.218;6.548;2023-01-04T03:25:52;8.30;99.90
51902;DHT22;37929;53.218;6.548;2023-01-04T03:28:38;8.30;99.90
51902;DHT22;37929;53.218;6.548;2023-01-04T03:34:15;8.40;99.90
51902;DHT22;37929;53.218;6.548;2023-01-04T03:37:07;8.40;99.90
51902;DHT22;37929;53.218;6.548;2023-01-04T03:43:06;8.60;99.90
51902;DHT22;37929;53.218;6.548;2023-01-04T03:46:06;8.50;99.90
51902;DHT22;37929;53.218;6.548;2023-01-04T03:49:01;8.70;99.90
51902;DHT22;37929;53.218;6.548;2023-01-04T03:51:34;8.70;99.90
51902;DHT22;37929;53.218;6.548;2023-01-04T03:54:13;8.80;99.90
51902;DHT22;37929;53.218;6.548;2023-01-04T03:56:42;8.80;99.90
51902;DHT22;37929;53.218;6.548;2023-01-04T03:59:10;8.80;99.90
51902;DHT22;37929;53.218;6.548;2023-01-04T04:01:37;8.80;99.90
51902;DHT22;37929;53.218;6.548;2023-01-04T04:04:03;8.80;99.90
51902;DHT22;37929;53.218;6.548;2023-01-04T04:06:48;8.90;99.90
51902;DHT22;37929;53.218;6.548;2023-01-04T04:09:32;8.90;99.90
51902;DHT22;37929;53.218;6.548;2023-01-04T04:11:58;9.10;99.90
51902;DHT22;37929;53.218;6.548;2023-01-04T04:14:24;9.10;99.90
51902;DHT22;37929;53.218;6.548;2023-01-04T04:16:50;9.10;99.90
51902;DHT22;37929;53.218;6.548;2023-01-04T04:19:15;9.20;99.90
51902;DHT22;37929;53.218;6.548;2023-01-04T04:21:41;9.20;99.90
51902;DHT22;37929;53.218;6.548;2023-01-04T04:24:15;9.30;99.90
51902;DHT22;37929;53.218;6.548;2023-01-04T04:26:40;9.40;99.90
51902;DHT22;37929;53.218;6.548;2023-01-04T04:29:06;9.40;99.90
51902;DHT22;37929;53.218;6.548;2023-01-04T04:31:32;9.50;99.90
51902;DHT22;37929;53.218;6.548;2023-01-04T04:33:57;9.50;99.90
51902;DHT22;37929;53.218;6.548;2023-01-04T04:36:24;9.60;99.90
51902;DHT22;37929;53.218;6.548;2023-01-04T04:38:49;9.60;99.90
51902;DHT22;37929;53.218;6.548;2023-01-04T04:41:15;9.70;99.90
51902;DHT22;37929;53.218;6.548;2023-01-04T04:43:59;9.60;99.90
51902;DHT22;37929;53.218;6.548;2023-01-04T04:46:25;9.80;99.90
51902;DHT22;37929;53.218;6.548;2023-01-04T04:48:51;9.80;99.90
51902;DHT22;37929;53.218;6.548;2023-01-04T04:51:17;9.90;99.90
51902;DHT22;37929;53.218;6.548;2023-01-04T04:53:43;9.90;99.90
51902;DHT22;37929;53.218;6.548;2023-01-04T04:56:09;10.00;99.90
51902;DHT22;37929;53.218;6.548;2023-01-04T04:58:36;10.00;99.90
51902;DHT22;37929;53.218;6.548;2023-01-04T05:01:01;10.00;99.90
51902;DHT22;37929;53.218;6.548;2023-01-04T05:03:27;10.10;99.90
51902;DHT22;37929;53.218;6.548;2023-01-04T05:05:53;10.10;99.90
51902;DHT22;37929;53.218;6.548;2023-01-04T05:08:19;10.10;99.90
51902;DHT22;37929;53.218;6.548;2023-01-04T05:10:45;10.10;99.90
51902;DHT22;37929;53.218;6.548;2023-01-04T05:13:11;10.20;99.90
51902;DHT22;37929;53.218;6.548;2023-01-04T05:15:50;10.20;99.90
51902;DHT22;37929;53.218;6.548;2023-01-04T05:18:19;10.20;99.90
51902;DHT22;37929;53.218;6.548;2023-01-04T05:20:45;10.20;99.90
51902;DHT22;37929;53.218;6.548;2023-01-04T05:23:13;10.30;99.90
51902;DHT22;37929;53.218;6.548;2023-01-04T05:25:39;10.30;99.90
51902;DHT22;37929;53.218;6.548;2023-01-04T05:28:06;10.20;99.90
51902;DHT22;37929;53.218;6.548;2023-01-04T05:30:32;10.30;99.90
51902;DHT22;37929;53.218;6.548;2023-01-04T05:33:20;10.40;99.90
51902;DHT22;37929;53.218;6.548;2023-01-04T05:35:47;10.30;99.90
51902;DHT22;37929;53.218;6.548;2023-01-04T05:38:13;10.30;99.90
51902;DHT22;37929;53.218;6.548;2023-01-04T05:40:39;10.40;99.90
51902;DHT22;37929;53.218;6.548;2023-01-04T05:43:05;10.30;99.90
51902;DHT22;37929;53.218;6.548;2023-01-04T05:45:31;10.40;99.90
51902;DHT22;37929;53.218;6.548;2023-01-04T05:47:56;10.30;99.90
51902;DHT22;37929;53.218;6.548;2023-01-04T05:50:22;10.30;99.90
51902;DHT22;37929;53.218;6.548;2023-01-04T05:52:49;10.30;99.90
51902;DHT22;37929;53.218;6.548;2023-01-04T05:55:15;10.50;99.90
51902;DHT22;37929;53.218;6.548;2023-01-04T05:57:42;10.30;99.90
51902;DHT22;37929;53.218;6.548;2023-01-04T06:00:11;10.20;99.90
51902;DHT22;37929;53.218;6.548;2023-01-04T06:02:37;10.30;99.90
51902;DHT22;37929;53.218;6.548;2023-01-04T06:05:03;10.30;99.90
51902;DHT22;37929;53.218;6.548;2023-01-04T06:07:30;10.20;99.90
51902;DHT22;37929;53.218;6.548;2023-01-04T06:09:56;10.30;99.90
51902;DHT22;37929;53.218;6.548;2023-01-04T06:12:23;10.30;99.90
51902;DHT22;37929;53.218;6.548;2023-01-04T06:14:48;10.30;99.90
51902;DHT22;37929;53.218;6.548;2023-01-04T06:17:14;10.30;99.90
51902;DHT22;37929;53.218;6.548;2023-01-04T06:19:40;10.30;99.90
51902;DHT22;37929;53.218;6.548;2023-01-04T06:22:06;10.40;99.90
51902;DHT22;37929;53.218;6.548;2023-01-04T06:24:32;10.40;99.90
51902;DHT22;37929;53.218;6.548;2023-01-04T06:27:01;10.40;99.90
51902;DHT22;37929;53.218;6.548;2023-01-04T06:29:27;10.40;99.90
51902;DHT22;37929;53.218;6.548;2023-01-04T06:31:53;10.40;99.90
51902;DHT22;37929;53.218;6.548;2023-01-04T06:34:19;10.50;99.90
51902;DHT22;37929;53.218;6.548;2023-01-04T06:36:44;10.40;99.90
51902;DHT22;37929;53.218;6.548;2023-01-04T06:39:10;10.50;99.90
51902;DHT22;37929;53.218;6.548;2023-01-04T06:41:36;10.50;99.90
51902;DHT22;37929;53.218;6.548;2023-01-04T06:44:02;10.50;99.90
51902;DHT22;37929;53.218;6.548;2023-01-04T06:46:28;10.50;99.90
51902;DHT22;37929;53.218;6.548;2023-01-04T06:48:54;10.50;99.90
51902;DHT22;37929;53.218;6.548;2023-01-04T06:51:21;10.40;99.90
51902;DHT22;37929;53.218;6.548;2023-01-04T06:53:47;10.40;99.90
51902;DHT22;37929;53.218;6.548;2023-01-04T06:56:12;10.50;99.90
51902;DHT22;37929;53.218;6.548;2023-01-04T06:58:38;10.50;99.90
51902;DHT22;37929;53.218;6.548;2023-01-04T07:01:05;10.40;99.90
51902;DHT22;37929;53.218;6.548;2023-01-04T07:03:31;10.50;99.90
51902;DHT22;37929;53.218;6.548;2023-01-04T07:05:57;10.50;99.90
51902;DHT22;37929;53.218;6.548;2023-01-04T07:08:23;10.50;99.90
51902;DHT22;37929;53.218;6.548;2023-01-04T07:10:49;10.60;99.90
51902;DHT22;37929;53.218;6.548;2023-01-04T07:13:15;10.60;99.90
51902;DHT22;37929;53.218;6.548;2023-01-04T07:15:40;10.50;99.90
51902;DHT22;37929;53.218;6.548;2023-01-04T07:18:08;10.60;99.90
51902;DHT22;37929;53.218;6.548;2023-01-04T07:20:34;10.60;99.90
51902;DHT22;37929;53.218;6.548;2023-01-04T07:23:00;10.60;99.90
51902;DHT22;37929;53.218;6.548;2023-01-04T07:25:26;10.60;99.90
51902;DHT22;37929;53.218;6.548;2023-01-04T07:27:53;10.60;99.90
51902;DHT22;37929;53.218;6.548;2023-01-04T07:30:20;10.60;99.90
51902;DHT22;37929;53.218;6.548;2023-01-04T07:32:46;10.60;99.90
51902;DHT22;37929;53.218;6.548;2023-01-04T07:35:11;10.60;99.90
51902;DHT22;37929;53.218;6.548;2023-01-04T07:37:37;10.70;99.90
51902;DHT22;37929;53.218;6.548;2023-01-04T07:40:04;10.60;99.90
51902;DHT22;37929;53.218;6.548;2023-01-04T07:42:30;10.60;99.90
51902;DHT22;37929;53.218;6.548;2023-01-04T07:44:56;10.60;99.90
51902;DHT22;37929;53.218;6.548;2023-01-04T07:47:21;10.60;99.90
51902;DHT22;37929;53.218;6.548;2023-01-04T07:49:47;10.60;99.90
51902;DHT22;37929;53.218;6.548;2023-01-04T07:52:14;10.50;99.90
51902;DHT22;37929;53.218;6.548;2023-01-04T07:54:41;10.50;99.90
51902;DHT22;37929;53.218;6.548;2023-01-04T07:57:07;10.50;99.90
51902;DHT22;37929;53.218;6.548;2023-01-04T07:59:33;10.60;99.90
51902;DHT22;37929;53.218;6.548;2023-01-04T08:01:58;10.50;99.90
51902;DHT22;37929;53.218;6.548;2023-01-04T08:04:24;10.60;99.90
51902;DHT22;37929;53.218;6.548;2023-01-04T08:06:50;10.60;99.90
51902;DHT22;37929;53.218;6.548;2023-01-04T08:09:16;10.70;99.90
51902;DHT22;37929;53.218;6.548;2023-01-04T08:11:43;10.60;99.90
51902;DHT22;37929;53.218;6.548;2023-01-04T08:14:09;10.80;99.90
51902;DHT22;37929;53.218;6.548;2023-01-04T08:16:40;10.60;99.90
51902;DHT22;37929;53.218;6.548;2023-01-04T08:19:19;10.60;99.90
51902;DHT22;37929;53.218;6.548;2023-01-04T08:21:45;10.60;99.90
51902;DHT22;37929;53.218;6.548;2023-01-04T08:24:14;10.60;99.90
51902;DHT22;37929;53.218;6.548;2023-01-04T08:26:41;10.60;99.90
51902;DHT22;37929;53.218;6.548;2023-01-04T08:29:06;10.60;99.90
51902;DHT22;37929;53.218;6.548;2023-01-04T08:31:32;10.60;99.90
51902;DHT22;37929;53.218;6.548;2023-01-04T08:34:02;10.60;99.90
51902;DHT22;37929;53.218;6.548;2023-01-04T08:36:30;10.60;99.90
51902;DHT22;37929;53.218;6.548;2023-01-04T08:39:02;10.60;99.90
51902;DHT22;37929;53.218;6.548;2023-01-04T08:41:30;10.60;99.90
51902;DHT22;37929;53.218;6.548;2023-01-04T08:43:59;10.60;99.90
51902;DHT22;37929;53.218;6.548;2023-01-04T08:46:25;10.60;99.90
51902;DHT22;37929;53.218;6.548;2023-01-04T08:48:51;10.60;99.90
51902;DHT22;37929;53.218;6.548;2023-01-04T08:51:20;10.60;99.90
51902;DHT22;37929;53.218;6.548;2023-01-04T08:53:56;10.60;99.90
51902;DHT22;37929;53.218;6.548;2023-01-04T08:56:23;10.50;99.90
51902;DHT22;37929;53.218;6.548;2023-01-04T08:58:48;10.60;99.90
51902;DHT22;37929;53.218;6.548;2023-01-04T09:01:14;10.60;99.90
51902;DHT22;37929;53.218;6.548;2023-01-04T09:03:40;10.60;99.90
51902;DHT22;37929;53.218;6.548;2023-01-04T09:06:14;10.60;99.90
51902;DHT22;37929;53.218;6.548;2023-01-04T09:08:42;10.50;99.90
51902;DHT22;37929;53.218;6.548;2023-01-04T09:11:14;10.60;99.90
51902;DHT22;37929;53.218;6.548;2023-01-04T09:13:41;10.60;99.90
51902;DHT22;37929;53.218;6.548;2023-01-04T09:16:09;10.70;99.90
51902;DHT22;37929;53.218;6.548;2023-01-04T09:18:35;10.70;99.90
51902;DHT22;37929;53.218;6.548;2023-01-04T09:21:08;11.10;99.90
51902;DHT22;37929;53.218;6.548;2023-01-04T09:23:35;10.60;99.90
51902;DHT22;37929;53.218;6.548;2023-01-04T09:26:06;10.80;99.90
51902;DHT22;37929;53.218;6.548;2023-01-04T09:28:32;10.60;99.90
51902;DHT22;37929;53.218;6.548;2023-01-04T09:30:57;10.70;99.90
51902;DHT22;37929;53.218;6.548;2023-01-04T09:33:23;10.70;99.90
51902;DHT22;37929;53.218;6.548;2023-01-04T09:35:49;10.70;99.90
51902;DHT22;37929;53.218;6.548;2023-01-04T09:38:14;10.70;99.90
51902;DHT22;37929;53.218;6.548;2023-01-04T09:43:41;10.60;99.90
51902;DHT22;37929;53.218;6.548;2023-01-04T09:46:10;10.60;99.90
51902;DHT22;37929;53.218;6.548;2023-01-04T09:48:39;10.70;99.90
51902;DHT22;37929;53.218;6.548;2023-01-04T09:51:12;10.70;99.90
51902;DHT22;37929;53.218;6.548;2023-01-04T09:53:47;10.70;99.90
51902;DHT22;37929;53.218;6.548;2023-01-04T09:56:23;10.70;99.90
51902;DHT22;37929;53.218;6.548;2023-01-04T09:58:51;10.70;99.90
51902;DHT22;37929;53.218;6.548;2023-01-04T10:01:24;10.70;99.90
51902;DHT22;37929;53.218;6.548;2023-01-04T10:04:06;11.30;99.90
51902;DHT22;37929;53.218;6.548;2023-01-04T10:06:37;10.80;99.90
51902;DHT22;37929;53.218;6.548;2023-01-04T10:09:10;10.70;99.90
51902;DHT22;37929;53.218;6.548;2023-01-04T10:19:42;10.80;99.90
51902;DHT22;37929;53.218;6.548;2023-01-04T10:25:06;10.90;99.90
51902;DHT22;37929;53.218;6.548;2023-01-04T10:31:35;10.90;99.90
51902;DHT22;37929;53.218;6.548;2023-01-04T10:36:29;10.90;99.90
51902;DHT22;37929;53.218;6.548;2023-01-04T10:39:02;11.00;99.90
51902;DHT22;37929;53.218;6.548;2023-01-04T10:41:34;11.00;99.90
51902;DHT22;37929;53.218;6.548;2023-01-04T10:44:16;11.10;99.90
51902;DHT22;37929;53.218;6.548;2023-01-04T10:46:55;11.00;99.90
51902;DHT22;37929;53.218;6.548;2023-01-04T10:54:53;11.20;99.90
51902;DHT22;37929;53.218;6.548;2023-01-04T10:57:36;11.20;99.90
51902;DHT22;37929;53.218;6.548;2023-01-04T11:00:12;11.30;99.90
51902;DHT22;37929;53.218;6.548;2023-01-04T11:02:49;11.30;99.90
51902;DHT22;37929;53.218;6.548;2023-01-04T11:05:34;11.30;99.90
51902;DHT22;37929;53.218;6.548;2023-01-04T11:10:41;11.30;99.90
51902;DHT22;37929;53.218;6.548;2023-01-04T11:13:09;11.40;99.90
51902;DHT22;37929;53.218;6.548;2023-01-04T11:15:35;11.40;99.90
51902;DHT22;37929;53.218;6.548;2023-01-04T11:18:04;11.40;99.90
51902;DHT22;37929;53.218;6.548;2023-01-04T11:20:31;11.50;99.90
51902;DHT22;37929;53.218;6.548;2023-01-04T11:23:17;11.50;99.90
51902;DHT22;37929;53.218;6.548;2023-01-04T11:25:49;11.40;99.90
51902;DHT22;37929;53.218;6.548;2023-01-04T11:28:27;11.40;99.90
51902;DHT22;37929;53.218;6.548;2023-01-04T11:31:43;11.40;99.90
51902;DHT22;37929;53.218;6.548;2023-01-04T11:36:42;11.40;99.90
51902;DHT22;37929;53.218;6.548;2023-01-04T11:39:22;11.40;99.90
51902;DHT22;37929;53.218;6.548;2023-01-04T11:41:57;11.50;99.90
51902;DHT22;37929;53.218;6.548;2023-01-04T11:44:24;11.50;99.90
51902;DHT22;37929;53.218;6.548;2023-01-04T11:47:15;11.40;99.90
51902;DHT22;37929;53.218;6.548;2023-01-04T11:49:41;11.50;99.90
51902;DHT22;37929;53.218;6.548;2023-01-04T11:52:39;11.40;99.90
51902;DHT22;37929;53.218;6.548;2023-01-04T11:55:24;12.00;99.90
51902;DHT22;37929;53.218;6.548;2023-01-04T11:58:08;11.90;99.90
51902;DHT22;37929;53.218;6.548;2023-01-04T12:00:34;11.40;99.90
51902;DHT22;37929;53.218;6.548;2023-01-04T12:03:14;11.40;99.90
51902;DHT22;37929;53.218;6.548;2023-01-04T12:05:40;11.40;99.90
51902;DHT22;37929;53.218;6.548;2023-01-04T12:08:32;11.40;99.90
51902;DHT22;37929;53.218;6.548;2023-01-04T12:10:59;11.40;99.90
51902;DHT22;37929;53.218;6.548;2023-01-04T12:13:30;11.50;99.90
51902;DHT22;37929;53.218;6.548;2023-01-04T12:18:50;11.50;99.90
51902;DHT22;37929;53.218;6.548;2023-01-04T12:21:21;11.40;99.90
51902;DHT22;37929;53.218;6.548;2023-01-04T12:23:48;11.80;99.90
51902;DHT22;37929;53.218;6.548;2023-01-04T12:26:17;11.70;99.90
51902;DHT22;37929;53.218;6.548;2023-01-04T12:31:31;11.50;99.90
51902;DHT22;37929;53.218;6.548;2023-01-04T12:50:12;11.50;99.90
51902;DHT22;37929;53.218;6.548;2023-01-04T12:55:49;11.50;99.90
51902;DHT22;37929;53.218;6.548;2023-01-04T13:08:23;11.40;99.90
51902;DHT22;37929;53.218;6.548;2023-01-04T13:10:54;11.30;99.90
51902;DHT22;37929;53.218;6.548;2023-01-04T13:19:17;11.30;99.90
51902;DHT22;37929;53.218;6.548;2023-01-04T13:21:45;11.30;99.90
51902;DHT22;37929;53.218;6.548;2023-01-04T13:24:27;11.30;99.90
51902;DHT22;37929;53.218;6.548;2023-01-04T13:26:55;11.30;99.90
51902;DHT22;37929;53.218;6.548;2023-01-04T13:32:24;11.30;99.90
51902;DHT22;37929;53.218;6.548;2023-01-04T13:35:00;11.30;99.90
51902;DHT22;37929;53.218;6.548;2023-01-04T13:37:32;11.30;99.90
51902;DHT22;37929;53.218;6.548;2023-01-04T13:48:40;11.30;99.90
51902;DHT22;37929;53.218;6.548;2023-01-04T13:53:40;11.30;99.90
51902;DHT22;37929;53.218;6.548;2023-01-04T13:56:19;11.30;99.90
51902;DHT22;37929;53.218;6.548;2023-01-04T13:58:45;11.30;99.90
51902;DHT22;37929;53.218;6.548;2023-01-04T14:03:59;11.40;99.90
51902;DHT22;37929;53.218;6.548;2023-01-04T14:09:03;11.50;99.90
51902;DHT22;37929;53.218;6.548;2023-01-04T14:11:52;11.50;99.90
51902;DHT22;37929;53.218;6.548;2023-01-04T14:14:45;11.50;99.90
51902;DHT22;37929;53.218;6.548;2023-01-04T14:19:47;11.50;99.90
51902;DHT22;37929;53.218;6.548;2023-01-04T14:22:23;11.50;99.90
51902;DHT22;37929;53.218;6.548;2023-01-04T14:24:50;11.60;99.90
51902;DHT22;37929;53.218;6.548;2023-01-04T14:27:35;11.50;99.90
51902;DHT22;37929;53.218;6.548;2023-01-04T14:32:59;11.60;99.90
51902;DHT22;37929;53.218;6.548;2023-01-04T14:35:27;11.60;99.90
51902;DHT22;37929;53.218;6.548;2023-01-04T14:38:00;11.60;99.90
51902;DHT22;37929;53.218;6.548;2023-01-04T14:40:29;11.50;99.90
51902;DHT22;37929;53.218;6.548;2023-01-04T14:42:57;11.50;99.90
51902;DHT22;37929;53.218;6.548;2023-01-04T14:45:24;11.50;99.90
51902;DHT22;37929;53.218;6.548;2023-01-04T14:47:49;11.50;99.90
51902;DHT22;37929;53.218;6.548;2023-01-04T14:50:16;11.50;99.90
51902;DHT22;37929;53.218;6.548;2023-01-04T14:52:52;11.40;99.90
51902;DHT22;37929;53.218;6.548;2023-01-04T14:55:18;11.50;99.90
51902;DHT22;37929;53.218;6.548;2023-01-04T14:57:44;11.50;99.90
51902;DHT22;37929;53.218;6.548;2023-01-04T15:00:14;11.40;99.90
51902;DHT22;37929;53.218;6.548;2023-01-04T15:02:41;11.40;99.90
51902;DHT22;37929;53.218;6.548;2023-01-04T15:05:07;11.40;99.90
51902;DHT22;37929;53.218;6.548;2023-01-04T15:07:35;11.40;99.90
51902;DHT22;37929;53.218;6.548;2023-01-04T15:10:22;11.40;99.90
51902;DHT22;37929;53.218;6.548;2023-01-04T15:12:49;11.40;99.90
51902;DHT22;37929;53.218;6.548;2023-01-04T15:15:15;11.40;99.90
51902;DHT22;37929;53.218;6.548;2023-01-04T15:17:40;11.30;99.90
51902;DHT22;37929;53.218;6.548;2023-01-04T15:20:07;11.40;99.90
51902;DHT22;37929;53.218;6.548;2023-01-04T15:22:32;11.30;99.90
51902;DHT22;37929;53.218;6.548;2023-01-04T15:24:59;11.20;99.90
51902;DHT22;37929;53.218;6.548;2023-01-04T15:27:24;11.20;99.90
51902;DHT22;37929;53.218;6.548;2023-01-04T15:29:50;11.20;99.90
51902;DHT22;37929;53.218;6.548;2023-01-04T15:32:21;11.20;99.90
51902;DHT22;37929;53.218;6.548;2023-01-04T15:34:50;11.20;99.90
51902;DHT22;37929;53.218;6.548;2023-01-04T15:37:16;11.20;99.90
51902;DHT22;37929;53.218;6.548;2023-01-04T15:39:42;11.70;99.90
51902;DHT22;37929;53.218;6.548;2023-01-04T15:42:10;11.20;99.90
51902;DHT22;37929;53.218;6.548;2023-01-04T15:44:54;11.20;99.90
51902;DHT22;37929;53.218;6.548;2023-01-04T15:47:20;11.20;99.90
51902;DHT22;37929;53.218;6.548;2023-01-04T15:49:46;11.20;99.90
51902;DHT22;37929;53.218;6.548;2023-01-04T15:52:12;11.20;99.90
51902;DHT22;37929;53.218;6.548;2023-01-04T15:54:37;11.20;99.90
51902;DHT22;37929;53.218;6.548;2023-01-04T15:57:12;11.30;99.90
51902;DHT22;37929;53.218;6.548;2023-01-04T15:59:39;11.20;99.90
51902;DHT22;37929;53.218;6.548;2023-01-04T16:02:06;11.20;99.90
51902;DHT22;37929;53.218;6.548;2023-01-04T16:04:36;11.20;99.90
51902;DHT22;37929;53.218;6.548;2023-01-04T16:07:05;11.20;99.90
51902;DHT22;37929;53.218;6.548;2023-01-04T16:09:34;11.20;99.90
51902;DHT22;37929;53.218;6.548;2023-01-04T16:12:02;11.90;99.90
51902;DHT22;37929;53.218;6.548;2023-01-04T16:14:47;11.20;99.90
51902;DHT22;37929;53.218;6.548;2023-01-04T16:17:12;11.20;99.90
51902;DHT22;37929;53.218;6.548;2023-01-04T16:19:38;11.10;99.90
51902;DHT22;37929;53.218;6.548;2023-01-04T16:22:04;11.20;99.90
51902;DHT22;37929;53.218;6.548;2023-01-04T16:24:30;11.10;99.90
51902;DHT22;37929;53.218;6.548;2023-01-04T16:26:56;11.20;99.90
51902;DHT22;37929;53.218;6.548;2023-01-04T16:29:22;11.20;99.90
51902;DHT22;37929;53.218;6.548;2023-01-04T16:31:49;11.20;99.90
51902;DHT22;37929;53.218;6.548;2023-01-04T16:34:15;11.10;99.90
51902;DHT22;37929;53.218;6.548;2023-01-04T16:36:41;11.10;99.90
51902;DHT22;37929;53.218;6.548;2023-01-04T16:39:07;11.10;99.90
51902;DHT22;37929;53.218;6.548;2023-01-04T16:41:33;11.10;99.90
51902;DHT22;37929;53.218;6.548;2023-01-04T16:43:59;11.00;99.90
51902;DHT22;37929;53.218;6.548;2023-01-04T16:46:27;11.40;99.90
51902;DHT22;37929;53.218;6.548;2023-01-04T16:48:56;10.90;99.90
51902;DHT22;37929;53.218;6.548;2023-01-04T16:51:23;10.90;99.90
51902;DHT22;37929;53.218;6.548;2023-01-04T16:53:50;10.80;99.90
51902;DHT22;37929;53.218;6.548;2023-01-04T16:56:17;10.80;99.90
51902;DHT22;37929;53.218;6.548;2023-01-04T16:58:44;10.80;99.90
51902;DHT22;37929;53.218;6.548;2023-01-04T17:01:20;10.70;99.90
51902;DHT22;37929;53.218;6.548;2023-01-04T17:03:47;10.80;99.90
51902;DHT22;37929;53.218;6.548;2023-01-04T17:06:17;10.80;99.90
51902;DHT22;37929;53.218;6.548;2023-01-04T17:08:44;10.80;99.90
51902;DHT22;37929;53.218;6.548;2023-01-04T17:11:11;10.70;99.90
51902;DHT22;37929;53.218;6.548;2023-01-04T17:13:38;10.70;99.90
51902;DHT22;37929;53.218;6.548;2023-01-04T17:16:04;10.70;99.90
51902;DHT22;37929;53.218;6.548;2023-01-04T17:18:30;10.70;99.90
51902;DHT22;37929;53.218;6.548;2023-01-04T17:20:58;10.70;99.90
51902;DHT22;37929;53.218;6.548;2023-01-04T17:23:26;11.10;99.90
51902;DHT22;37929;53.218;6.548;2023-01-04T17:25:52;10.70;99.90
51902;DHT22;37929;53.218;6.548;2023-01-04T17:28:18;10.70;99.90
51902;DHT22;37929;53.218;6.548;2023-01-04T17:30:44;10.70;99.90
51902;DHT22;37929;53.218;6.548;2023-01-04T17:33:10;10.70;99.90
51902;DHT22;37929;53.218;6.548;2023-01-04T17:35:37;10.70;99.90
51902;DHT22;37929;53.218;6.548;2023-01-04T17:38:08;10.70;99.90
51902;DHT22;37929;53.218;6.548;2023-01-04T17:40:33;10.70;99.90
51902;DHT22;37929;53.218;6.548;2023-01-04T17:43:00;10.60;99.90
51902;DHT22;37929;53.218;6.548;2023-01-04T17:45:26;10.70;99.90
51902;DHT22;37929;53.218;6.548;2023-01-04T17:47:52;10.70;99.90
51902;DHT22;37929;53.218;6.548;2023-01-04T17:50:19;10.70;99.90
51902;DHT22;37929;53.218;6.548;2023-01-04T17:52:46;10.80;99.90
51902;DHT22;37929;53.218;6.548;2023-01-04T17:55:12;10.80;99.90
51902;DHT22;37929;53.218;6.548;2023-01-04T17:57:38;10.60;99.90
51902;DHT22;37929;53.218;6.548;2023-01-04T18:00:05;10.50;99.90
51902;DHT22;37929;53.218;6.548;2023-01-04T18:02:32;10.50;99.90
51902;DHT22;37929;53.218;6.548;2023-01-04T18:04:58;10.60;99.90
51902;DHT22;37929;53.218;6.548;2023-01-04T18:07:24;10.50;99.90